createdAt,value
2023-04-01T00:01:26.236Z,7.38
2023-04-01T00:03:52.815Z,7.42
2023-04-01T00:06:20.055Z,7.35
2023-04-01T00:08:47.279Z,7.34
2023-04-01T00:11:14.223Z,7.25
2023-04-01T00:13:40.765Z,7.22
2023-04-01T00:16:17.942Z,7.23
2023-04-01T00:18:50.963Z,7.28
2023-04-01T00:21:18.333Z,7.35
2023-04-01T00:23:44.901Z,7.45
2023-04-01T00:26:13.051Z,7.47
2023-04-01T00:28:39.689Z,7.50
2023-04-01T00:31:08.001Z,7.60
2023-04-01T00:33:34.559Z,7.63
2023-04-01T00:36:15.486Z,7.66
2023-04-01T00:38:43.478Z,7.68
2023-04-01T00:41:15.721Z,7.74
2023-04-01T00:43:43.513Z,7.85
2023-04-01T00:46:09.985Z,7.98
2023-04-01T00:48:40.443Z,7.99
2023-04-01T00:51:15.449Z,8.10
2023-04-01T00:53:46.304Z,8.11
2023-04-01T00:56:27.793Z,8.16
2023-04-01T00:59:01.241Z,8.26
2023-04-01T01:01:33.108Z,8.24
2023-04-01T01:04:00.606Z,8.28
2023-04-01T01:06:45.838Z,8.30
2023-04-01T01:09:30.998Z,8.38
2023-04-01T01:12:19.424Z,8.35
2023-04-01T01:14:56.327Z,8.39
2023-04-01T01:17:35.950Z,8.38
2023-04-01T01:20:26.893Z,8.40
2023-04-01T01:23:19.384Z,8.43
2023-04-01T01:29:54.282Z,8.40
2023-04-01T01:33:13.785Z,8.46
2023-04-01T01:45:54.402Z,8.36
2023-04-01T01:48:32.455Z,8.38
2023-04-01T01:54:38.195Z,8.38
2023-04-01T02:00:40.251Z,8.44
2023-04-01T02:03:28.910Z,8.39
2023-04-01T02:06:36.110Z,8.46
2023-04-01T02:09:28.886Z,8.39
2023-04-01T02:12:12.909Z,8.39
2023-04-01T02:18:10.603Z,8.32
2023-04-01T02:20:55.140Z,8.38
2023-04-01T02:23:31.065Z,8.37
2023-04-01T02:26:22.656Z,8.39
2023-04-01T02:29:01.612Z,8.36
2023-04-01T02:31:39.368Z,8.44
2023-04-01T02:34:12.849Z,8.46
2023-04-01T02:36:51.181Z,8.49
2023-04-01T02:39:37.675Z,8.49
2023-04-01T02:42:07.884Z,8.44
2023-04-01T02:44:57.866Z,8.43
2023-04-01T02:47:34.776Z,8.38
2023-04-01T02:52:55.356Z,8.40
2023-04-01T02:55:37.083Z,8.38
2023-04-01T02:58:30.255Z,8.34
2023-04-01T03:01:18.276Z,8.35
2023-04-01T03:04:06.798Z,8.40
2023-04-01T03:06:58.303Z,8.39
2023-04-01T03:10:28.749Z,8.44
2023-04-01T03:13:20.243Z,8.40
2023-04-01T03:19:32.571Z,8.36
2023-04-01T03:22:25.773Z,8.35
2023-04-01T03:28:31.655Z,8.29
2023-04-01T03:42:36.041Z,8.40
2023-04-01T03:48:21.423Z,8.28
2023-04-01T03:51:14.642Z,8.32
2023-04-01T03:54:12.022Z,8.33
2023-04-01T03:56:46.023Z,8.35
2023-04-01T04:02:35.462Z,8.29
2023-04-01T04:05:44.587Z,8.35
2023-04-01T04:08:21.047Z,8.29
2023-04-01T04:11:06.236Z,8.32
2023-04-01T04:13:58.461Z,8.30
2023-04-01T04:20:21.654Z,8.20
2023-04-01T04:23:57.028Z,8.24
2023-04-01T04:30:33.151Z,8.16
2023-04-01T04:36:47.569Z,8.10
2023-04-01T04:39:23.569Z,8.06
2023-04-01T04:41:59.655Z,8.10
2023-04-01T04:44:43.446Z,8.07
2023-04-01T04:47:25.000Z,8.08
2023-04-01T04:49:54.137Z,8.09
2023-04-01T04:58:59.804Z,7.99
2023-04-01T05:01:35.318Z,7.88
2023-04-01T05:04:26.280Z,7.99
2023-04-01T05:07:09.074Z,7.97
2023-04-01T05:09:46.504Z,7.94
2023-04-01T05:12:42.368Z,7.94
2023-04-01T05:15:22.147Z,7.82
2023-04-01T05:24:14.643Z,7.81
2023-04-01T05:26:54.686Z,7.83
2023-04-01T05:29:36.316Z,7.91
2023-04-01T05:32:11.544Z,7.92
2023-04-01T05:34:44.693Z,7.89
2023-04-01T05:37:21.156Z,7.89
2023-04-01T05:39:52.780Z,7.92
2023-04-01T05:42:32.918Z,7.86
2023-04-01T05:45:02.613Z,7.83
2023-04-01T05:47:32.553Z,7.85
2023-04-01T05:50:03.641Z,7.85
2023-04-01T05:52:32.109Z,7.79
2023-04-01T05:55:07.709Z,7.80
2023-04-01T05:57:36.329Z,7.79
2023-04-01T06:00:08.094Z,7.82
2023-04-01T06:02:34.724Z,7.79
2023-04-01T06:05:27.510Z,7.83
2023-04-01T06:08:02.374Z,7.85
2023-04-01T06:11:08.414Z,7.84
2023-04-01T06:14:01.729Z,7.86
2023-04-01T06:16:55.392Z,7.92
2023-04-01T06:19:48.472Z,7.92
2023-04-01T06:22:46.253Z,8.04
2023-04-01T06:25:41.583Z,8.05
2023-04-01T06:28:44.559Z,7.99
2023-04-01T06:31:51.203Z,8.12
2023-04-01T06:34:49.760Z,8.25
2023-04-01T06:37:51.750Z,8.37
2023-04-01T06:40:45.821Z,8.51
2023-04-01T06:43:42.202Z,8.51
2023-04-01T06:46:28.924Z,8.51
2023-04-01T06:49:21.759Z,8.53
2023-04-01T06:52:06.062Z,8.48
2023-04-01T06:54:39.302Z,8.60
2023-04-01T06:57:20.308Z,8.57
2023-04-01T06:59:53.643Z,8.61
2023-04-01T07:02:32.832Z,8.68
2023-04-01T07:05:00.556Z,8.87
2023-04-01T07:11:02.529Z,8.73
2023-04-01T07:13:53.417Z,8.82
2023-04-01T07:16:35.914Z,8.84
2023-04-01T07:19:42.235Z,8.82
2023-04-01T07:22:49.556Z,8.88
2023-04-01T07:25:57.332Z,8.89
2023-04-01T07:28:23.851Z,8.86
2023-04-01T07:30:58.597Z,8.88
2023-04-01T07:33:40.349Z,8.89
2023-04-01T07:36:23.232Z,8.94
2023-04-01T07:39:00.308Z,8.99
2023-04-01T07:41:57.351Z,9.11
2023-04-01T07:44:41.160Z,9.17
2023-04-01T07:47:16.734Z,9.39
2023-04-01T07:49:54.331Z,9.53
2023-04-01T07:52:39.522Z,9.46
2023-04-01T07:55:14.998Z,9.36
2023-04-01T07:57:56.938Z,9.44
2023-04-01T08:01:03.980Z,9.36
2023-04-01T08:03:54.195Z,9.44
2023-04-01T08:06:29.586Z,9.41
2023-04-01T08:09:31.425Z,9.36
2023-04-01T08:12:36.963Z,9.48
2023-04-01T08:15:22.370Z,9.66
2023-04-01T08:18:06.769Z,9.74
2023-04-01T08:20:45.398Z,9.56
2023-04-01T08:23:17.146Z,9.53
2023-04-01T08:26:22.480Z,9.53
2023-04-01T08:29:13.119Z,9.50
2023-04-01T08:31:58.631Z,9.35
2023-04-01T08:34:36.284Z,9.43
2023-04-01T08:37:09.039Z,9.49
2023-04-01T08:39:58.132Z,9.58
2023-04-01T08:42:52.145Z,9.45
2023-04-01T08:45:57.752Z,9.44
2023-04-01T08:48:36.632Z,9.46
2023-04-01T08:51:40.654Z,9.56
2023-04-01T08:54:33.397Z,9.45
2023-04-01T08:57:12.086Z,9.53
2023-04-01T08:59:57.148Z,9.57
2023-04-01T09:02:46.932Z,9.58
2023-04-01T09:05:40.424Z,9.64
2023-04-01T09:08:25.288Z,9.54
2023-04-01T09:11:22.340Z,9.55
2023-04-01T09:14:06.167Z,9.57
2023-04-01T09:16:44.731Z,9.45
2023-04-01T09:19:24.887Z,9.45
2023-04-01T09:22:29.199Z,9.50
2023-04-01T09:25:26.043Z,9.56
2023-04-01T09:28:11.233Z,9.59
2023-04-01T09:31:03.463Z,9.69
2023-04-01T09:34:07.609Z,9.69
2023-04-01T09:36:56.916Z,9.69
2023-04-01T09:39:43.284Z,9.63
2023-04-01T09:43:07.166Z,9.66
2023-04-01T09:45:55.312Z,9.80
2023-04-01T09:48:46.106Z,9.89
2023-04-01T09:51:38.340Z,9.93
2023-04-01T09:54:38.775Z,9.93
2023-04-01T09:57:28.321Z,9.92
2023-04-01T10:00:10.904Z,10.06
2023-04-01T10:03:04.517Z,9.91
2023-04-01T10:05:56.243Z,9.59
2023-04-01T10:08:41.465Z,9.66
2023-04-01T10:11:32.495Z,9.40
2023-04-01T10:14:17.482Z,9.31
2023-04-01T10:17:02.738Z,9.39
2023-04-01T10:19:56.920Z,9.39
2023-04-01T10:22:55.874Z,9.32
2023-04-01T10:25:39.654Z,9.31
2023-04-01T10:28:31.228Z,9.42
2023-04-01T10:31:35.345Z,9.41
2023-04-01T10:34:23.628Z,9.34
2023-04-01T10:36:59.003Z,9.11
2023-04-01T10:39:36.170Z,9.19
2023-04-01T10:42:35.933Z,9.29
2023-04-01T10:45:47.339Z,9.27
2023-04-01T10:48:46.664Z,9.26
2023-04-01T10:51:26.445Z,9.41
2023-04-01T10:54:19.692Z,9.21
2023-04-01T10:57:12.402Z,9.29
2023-04-01T10:59:57.769Z,9.22
2023-04-01T11:03:02.061Z,9.25
2023-04-01T11:05:54.323Z,9.34
2023-04-01T11:08:59.100Z,9.38
2023-04-01T11:11:37.363Z,9.24
2023-04-01T11:14:37.563Z,9.34
2023-04-01T11:17:24.152Z,9.35
2023-04-01T11:20:11.173Z,9.15
2023-04-01T11:23:14.778Z,8.93
2023-04-01T11:25:49.628Z,9.00
2023-04-01T11:28:36.137Z,8.74
2023-04-01T11:31:24.729Z,8.77
2023-04-01T11:34:23.386Z,8.74
2023-04-01T11:36:56.611Z,8.93
2023-04-01T11:39:49.523Z,8.88
2023-04-01T11:42:21.107Z,8.96
2023-04-01T11:44:59.798Z,9.01
2023-04-01T11:47:40.245Z,8.95
2023-04-01T11:50:26.930Z,9.11
2023-04-01T11:53:28.868Z,9.14
2023-04-01T11:56:35.905Z,9.21
2023-04-01T11:59:32.945Z,8.98
2023-04-01T12:02:29.472Z,9.23
2023-04-01T12:05:46.630Z,9.22
2023-04-01T12:08:34.348Z,9.23
2023-04-01T12:11:23.815Z,9.26
2023-04-01T12:14:16.803Z,9.18
2023-04-01T12:17:01.864Z,9.17
2023-04-01T12:19:52.689Z,9.15
2023-04-01T12:22:25.789Z,9.13
2023-04-01T12:25:01.380Z,9.11
2023-04-01T12:27:57.643Z,9.12
2023-04-01T12:30:56.202Z,9.24
2023-04-01T12:33:48.978Z,9.33
2023-04-01T12:36:49.290Z,9.33
2023-04-01T12:39:52.704Z,9.38
2023-04-01T12:42:40.288Z,9.39
2023-04-01T12:45:28.523Z,9.18
2023-04-01T12:48:01.818Z,9.20
2023-04-01T12:50:53.568Z,9.33
2023-04-01T12:53:41.294Z,9.34
2023-04-01T12:56:24.122Z,9.42
2023-04-01T12:59:01.519Z,9.44
2023-04-01T13:01:55.942Z,9.52
2023-04-01T13:05:00.907Z,9.53
2023-04-01T13:07:30.266Z,9.36
2023-04-01T13:10:14.913Z,9.32
2023-04-01T13:12:57.971Z,9.31
2023-04-01T13:15:34.601Z,9.37
2023-04-01T13:18:32.032Z,9.33
2023-04-01T13:21:10.217Z,9.27
2023-04-01T13:24:11.595Z,9.31
2023-04-01T13:26:42.473Z,9.32
2023-04-01T13:32:04.076Z,9.33
2023-04-01T13:34:48.594Z,9.30
2023-04-01T13:37:37.578Z,9.30
2023-04-01T13:40:22.415Z,9.10
2023-04-01T13:42:58.230Z,9.11
2023-04-01T13:45:39.237Z,9.03
2023-04-01T13:48:28.286Z,9.13
2023-04-01T13:54:20.595Z,9.05
2023-04-01T13:57:21.627Z,9.04
2023-04-01T14:00:16.483Z,9.16
2023-04-01T14:03:20.988Z,9.03
2023-04-01T14:06:20.498Z,9.10
2023-04-01T14:09:11.971Z,9.13
2023-04-01T14:11:58.979Z,9.20
2023-04-01T14:14:54.680Z,9.30
2023-04-01T14:17:45.587Z,9.40
2023-04-01T14:20:27.626Z,9.49
2023-04-01T14:23:36.974Z,9.39
2023-04-01T14:26:22.419Z,9.46
2023-04-01T14:29:10.480Z,9.42
2023-04-01T14:32:12.747Z,9.42
2023-04-01T14:34:59.365Z,9.45
2023-04-01T14:38:07.712Z,9.45
2023-04-01T14:40:53.005Z,9.52
2023-04-01T14:43:43.643Z,9.56
2023-04-01T14:47:09.994Z,9.53
2023-04-01T14:50:49.838Z,9.55
2023-04-01T14:53:40.453Z,9.51
2023-04-01T14:56:49.480Z,9.33
2023-04-01T15:00:30.708Z,9.32
2023-04-01T15:03:10.079Z,9.34
2023-04-01T15:06:07.170Z,9.11
2023-04-01T15:09:07.688Z,9.20
2023-04-01T15:11:47.740Z,9.16
2023-04-01T15:14:14.215Z,9.25
2023-04-01T15:17:09.116Z,9.10
2023-04-01T15:20:14.976Z,9.06
2023-04-01T15:22:56.770Z,9.04
2023-04-01T15:25:29.359Z,9.00
2023-04-01T15:28:17.880Z,8.97
2023-04-01T15:31:23.945Z,8.88
2023-04-01T15:34:36.986Z,9.04
2023-04-01T15:37:15.719Z,8.90
2023-04-01T15:40:01.068Z,9.04
2023-04-01T15:42:49.328Z,9.03
2023-04-01T15:45:28.467Z,9.06
2023-04-01T15:48:21.730Z,9.14
2023-04-01T15:50:52.910Z,9.11
2023-04-01T15:53:37.608Z,9.17
2023-04-01T15:56:28.739Z,9.09
2023-04-01T15:59:17.103Z,9.10
2023-04-01T16:02:20.801Z,9.00
2023-04-01T16:05:02.669Z,9.08
2023-04-01T16:07:54.314Z,9.00
2023-04-01T16:10:42.683Z,8.99
2023-04-01T16:13:43.913Z,8.93
2023-04-01T16:16:16.512Z,8.93
2023-04-01T16:18:52.358Z,8.88
2023-04-01T16:21:21.955Z,8.83
2023-04-01T16:23:58.342Z,8.82
2023-04-01T16:26:40.303Z,8.81
2023-04-01T16:29:16.156Z,8.73
2023-04-01T16:31:56.816Z,8.72
2023-04-01T16:34:48.873Z,8.80
2023-04-01T16:37:22.988Z,8.73
2023-04-01T16:40:17.145Z,8.73
2023-04-01T16:42:53.810Z,8.76
2023-04-01T16:45:32.650Z,8.76
2023-04-01T16:48:10.614Z,8.68
2023-04-01T16:51:14.222Z,8.65
2023-04-01T16:53:47.280Z,8.63
2023-04-01T16:56:21.953Z,8.57
2023-04-01T16:59:08.244Z,8.63
2023-04-01T17:01:56.632Z,8.61
2023-04-01T17:04:35.431Z,8.55
2023-04-01T17:07:11.442Z,8.55
2023-04-01T17:10:09.249Z,8.53
2023-04-01T17:13:16.820Z,8.53
2023-04-01T17:16:03.292Z,8.49
2023-04-01T17:18:45.581Z,8.48
2023-04-01T17:21:25.111Z,8.44
2023-04-01T17:23:55.795Z,8.44
2023-04-01T17:26:33.398Z,8.44
2023-04-01T17:29:13.018Z,8.44
2023-04-01T17:32:16.679Z,8.44
2023-04-01T17:35:08.684Z,8.33
2023-04-01T17:38:09.385Z,8.35
2023-04-01T17:41:12.081Z,8.26
2023-04-01T17:44:36.027Z,8.22
2023-04-01T17:47:13.219Z,8.18
2023-04-01T17:49:58.353Z,8.12
2023-04-01T17:52:24.875Z,8.13
2023-04-01T17:55:20.584Z,8.17
2023-04-01T17:58:17.354Z,8.15
2023-04-01T18:01:28.317Z,8.11
2023-04-01T18:04:21.371Z,8.03
2023-04-01T18:07:27.620Z,8.02
2023-04-01T18:10:34.277Z,7.91
2023-04-01T18:13:42.183Z,7.98
2023-04-01T18:16:23.158Z,7.96
2023-04-01T18:19:12.845Z,7.98
2023-04-01T18:25:10.657Z,8.06
2023-04-01T18:28:03.606Z,8.05
2023-04-01T18:37:56.969Z,8.07
2023-04-01T18:41:04.761Z,8.10
2023-04-01T18:43:42.917Z,8.15
2023-04-01T18:47:05.403Z,8.14
2023-04-01T18:49:53.792Z,8.19
2023-04-01T18:52:35.140Z,8.11
2023-04-01T18:55:01.605Z,8.08
2023-04-01T18:57:41.826Z,8.09
2023-04-01T19:00:19.775Z,8.11
2023-04-01T19:02:52.659Z,8.11
2023-04-01T19:05:33.353Z,8.11
2023-04-01T19:08:32.806Z,8.10
2023-04-01T19:11:25.197Z,8.16
2023-04-01T19:14:01.914Z,8.10
2023-04-01T19:16:49.800Z,8.19
2023-04-01T19:19:33.391Z,8.17
2023-04-01T19:22:18.529Z,8.19
2023-04-01T19:25:18.240Z,8.26
2023-04-01T19:28:04.766Z,8.18
2023-04-01T19:30:57.464Z,8.15
2023-04-01T19:33:36.210Z,8.18
2023-04-01T19:36:07.666Z,8.18
2023-04-01T19:38:53.790Z,8.17
2023-04-01T19:41:31.242Z,8.17
2023-04-01T19:44:21.248Z,8.21
2023-04-01T19:46:54.297Z,8.22
2023-04-01T19:49:37.477Z,8.15
2023-04-01T19:52:11.311Z,8.16
2023-04-01T19:54:52.854Z,8.20
2023-04-01T19:57:25.589Z,8.24
2023-04-01T20:00:02.850Z,8.19
2023-04-01T20:02:58.156Z,8.18
2023-04-01T20:05:39.999Z,8.14
2023-04-01T20:08:37.709Z,8.17
2023-04-01T20:11:29.627Z,8.13
2023-04-01T20:14:30.842Z,8.17
2023-04-01T20:17:09.675Z,8.17
2023-04-01T20:19:58.742Z,8.17
2023-04-01T20:22:33.526Z,8.18
2023-04-01T20:25:45.735Z,8.18
2023-04-01T20:28:26.221Z,8.18
2023-04-01T20:31:11.018Z,8.20
2023-04-01T20:34:12.089Z,8.20
2023-04-01T20:37:02.741Z,8.19
2023-04-01T20:40:13.551Z,8.17
2023-04-01T20:43:26.099Z,8.17
2023-04-01T20:45:59.320Z,8.16
2023-04-01T20:48:41.426Z,8.18
2023-04-01T20:51:16.410Z,8.22
2023-04-01T20:54:22.021Z,8.26
2023-04-01T20:57:10.587Z,8.21
2023-04-01T20:59:51.383Z,8.29
2023-04-01T21:02:33.806Z,8.28
2023-04-01T21:05:12.400Z,8.28
2023-04-01T21:07:56.462Z,8.30
2023-04-01T21:10:44.584Z,8.30
2023-04-01T21:13:19.548Z,8.31
2023-04-01T21:16:11.373Z,8.29
2023-04-01T21:18:54.664Z,8.28
2023-04-01T21:21:45.159Z,8.25
2023-04-01T21:24:14.286Z,8.28
2023-04-01T21:26:44.284Z,8.30
2023-04-01T21:29:45.973Z,8.27
2023-04-01T21:32:25.563Z,8.28
2023-04-01T21:35:17.571Z,8.26
2023-04-01T21:38:10.281Z,8.29
2023-04-01T21:40:44.578Z,8.26
2023-04-01T21:43:23.738Z,8.24
2023-04-01T21:46:21.195Z,8.22
2023-04-01T21:49:19.393Z,8.22
2023-04-01T21:52:13.143Z,8.26
2023-04-01T21:55:03.888Z,8.33
2023-04-01T21:58:14.119Z,8.24
2023-04-01T22:01:04.220Z,8.19
2023-04-01T22:04:03.499Z,8.18
2023-04-01T22:06:38.783Z,8.20
2023-04-01T22:09:24.358Z,8.15
2023-04-01T22:12:03.894Z,8.20
2023-04-01T22:14:57.518Z,8.12
2023-04-01T22:17:40.315Z,8.15
2023-04-01T22:20:31.396Z,8.17
2023-04-01T22:23:11.307Z,8.11
2023-04-01T22:25:58.814Z,8.06
2023-04-01T22:28:38.994Z,8.04
2023-04-01T22:31:07.880Z,7.99
2023-04-01T22:33:48.760Z,8.09
2023-04-01T22:36:53.608Z,8.10
2023-04-01T22:39:38.051Z,8.04
2023-04-01T22:42:26.303Z,8.01
2023-04-01T22:45:24.154Z,8.02
2023-04-01T22:48:02.368Z,8.03
2023-04-01T22:50:32.730Z,7.98
2023-04-01T22:53:38.042Z,7.94
2023-04-01T22:56:11.998Z,8.00
2023-04-01T22:58:43.560Z,8.01
2023-04-01T23:01:17.844Z,8.02
2023-04-01T23:03:47.625Z,8.01
2023-04-01T23:06:21.477Z,8.03
2023-04-01T23:09:08.954Z,7.99
2023-04-01T23:11:58.656Z,7.96
2023-04-01T23:14:51.744Z,7.98
2023-04-01T23:17:42.301Z,8.04
2023-04-01T23:20:56.181Z,8.04
2023-04-01T23:23:46.307Z,8.03
2023-04-01T23:26:32.111Z,7.97
2023-04-01T23:29:00.508Z,8.05
2023-04-01T23:31:42.003Z,7.99
2023-04-01T23:34:14.630Z,7.98
2023-04-01T23:36:48.522Z,8.03
2023-04-01T23:39:29.433Z,8.04
2023-04-01T23:42:15.717Z,8.04
2023-04-01T23:44:44.667Z,7.97
2023-04-01T23:47:18.104Z,7.96
2023-04-01T23:49:51.886Z,7.94
2023-04-01T23:52:24.446Z,7.94
2023-04-01T23:55:12.884Z,7.99
2023-04-01T23:57:40.329Z,8.01
